Time;durP1;ratioP1;P1;durP2;ratioP2;P2;SDS_P1;SDS_P2;PMS_P1;PMS_P2;Temp;Humidity;BMP_temperature;BMP_pressure;BME280_temperature;BME280_humidity;BME280_pressure;Samples;Min_cycle;Max_cycle;Signal;HPM_P1;HPM_P2
2023/09/30 00:01:28;;;;;;;37.33;5.85;;;;;;;;;;5050690;28;20041;-40
2023/09/30 00:03:55;;;;;;;30.17;6.00;;;;;;;;;;5052133;28;20028;-38
2023/09/30 00:06:22;;;;;;;31.02;5.40;;;;;;;;;;5051904;28;20029;-43
2023/09/30 00:08:49;;;;;;;32.97;6.13;;;;;;;;;;5051638;28;20020;-41
2023/09/30 00:11:20;;;;;;;33.80;5.75;;;;;;;;;;5052015;28;20031;-43
2023/09/30 00:13:49;;;;;;;37.75;6.13;;;;;;;;;;5050975;28;20036;-44
2023/09/30 00:16:17;;;;;;;28.52;5.95;;;;;;;;;;5048377;28;20033;-41
2023/09/30 00:18:44;;;;;;;32.67;6.10;;;;;;;;;;5050657;28;20065;-44
2023/09/30 00:21:12;;;;;;;39.58;7.22;;;;;;;;;;5050309;28;20486;-46
2023/09/30 00:23:39;;;;;;;38.33;6.05;;;;;;;;;;5050629;28;20025;-45
2023/09/30 00:26:06;;;;;;;31.60;6.05;;;;;;;;;;5050475;28;20505;-43
2023/09/30 00:28:33;;;;;;;57.20;7.45;;;;;;;;;;5050474;28;20029;-43
2023/09/30 00:31:00;;;;;;;37.72;7.03;;;;;;;;;;5049719;28;20386;-41
2023/09/30 00:33:27;;;;;;;39.70;6.53;;;;;;;;;;5050535;28;20044;-43
2023/09/30 00:35:54;;;;;;;39.17;7.30;;;;;;;;;;5050916;28;20087;-41
2023/09/30 00:38:23;;;;;;;38.65;7.40;;;;;;;;;;5050589;28;20456;-42
2023/09/30 00:40:50;;;;;;;36.72;6.57;;;;;;;;;;5050757;28;20399;-40
2023/09/30 00:43:21;;;;;;;33.30;6.57;;;;;;;;;;5036219;28;20021;-43
2023/09/30 00:45:49;;;;;;;30.92;6.30;;;;;;;;;;5050396;28;20025;-37
2023/09/30 00:48:17;;;;;;;27.30;6.50;;;;;;;;;;5050424;28;20032;-39
2023/09/30 00:50:44;;;;;;;34.22;5.78;;;;;;;;;;5050416;28;20025;-37
2023/09/30 00:53:11;;;;;;;33.95;6.15;;;;;;;;;;5050703;28;20037;-38
2023/09/30 00:55:39;;;;;;;40.08;7.28;;;;;;;;;;5050661;28;20053;-38
2023/09/30 00:58:06;;;;;;;33.88;6.65;;;;;;;;;;5050813;28;20078;-40
2023/09/30 01:00:33;;;;;;;38.17;7.10;;;;;;;;;;5050875;28;20437;-37
2023/09/30 01:03:03;;;;;;;32.90;6.72;;;;;;;;;;5050678;28;20021;-38
2023/09/30 01:05:31;;;;;;;32.25;7.63;;;;;;;;;;5050510;28;20166;-40
2023/09/30 01:07:58;;;;;;;29.33;6.38;;;;;;;;;;5050756;28;20025;-40
2023/09/30 01:10:25;;;;;;;31.60;7.20;;;;;;;;;;5052724;28;20036;-42
2023/09/30 01:12:52;;;;;;;34.17;6.28;;;;;;;;;;5050740;28;20037;-40
2023/09/30 01:15:19;;;;;;;35.83;6.25;;;;;;;;;;5049331;28;20025;-43
2023/09/30 01:17:46;;;;;;;30.77;6.35;;;;;;;;;;5032026;28;20124;-41
2023/09/30 01:20:16;;;;;;;25.52;5.68;;;;;;;;;;5049888;28;20395;-43
2023/09/30 01:22:45;;;;;;;30.80;5.38;;;;;;;;;;5050117;28;20116;-44
2023/09/30 01:25:12;;;;;;;22.77;6.00;;;;;;;;;;5051721;28;20487;-43
2023/09/30 01:27:39;;;;;;;26.17;5.90;;;;;;;;;;5050018;28;20036;-43
2023/09/30 01:30:10;;;;;;;27.35;5.45;;;;;;;;;;5049467;28;20102;-43
2023/09/30 01:32:38;;;;;;;27.90;5.75;;;;;;;;;;5052840;28;20033;-44
2023/09/30 01:35:05;;;;;;;30.50;6.28;;;;;;;;;;5054656;28;20036;-43
2023/09/30 01:37:32;;;;;;;34.03;6.60;;;;;;;;;;5054566;28;20075;-43
2023/09/30 01:39:59;;;;;;;28.95;6.00;;;;;;;;;;5052014;28;20029;-43
2023/09/30 01:42:27;;;;;;;24.73;5.50;;;;;;;;;;5054207;28;20510;-43
2023/09/30 01:44:54;;;;;;;22.58;5.63;;;;;;;;;;5054323;28;20029;-42
2023/09/30 01:47:21;;;;;;;25.80;5.68;;;;;;;;;;5053742;28;20037;-43
2023/09/30 01:49:48;;;;;;;31.30;6.03;;;;;;;;;;5053791;28;20040;-44
2023/09/30 01:52:15;;;;;;;27.92;5.53;;;;;;;;;;5053524;28;20063;-42
2023/09/30 01:54:42;;;;;;;28.38;6.03;;;;;;;;;;5053484;28;20029;-43
2023/09/30 01:57:09;;;;;;;24.35;5.82;;;;;;;;;;5053651;28;20028;-41
2023/09/30 01:59:36;;;;;;;25.58;5.53;;;;;;;;;;5053419;28;20036;-44
2023/09/30 02:02:04;;;;;;;20.45;5.25;;;;;;;;;;5053473;28;20363;-45
2023/09/30 02:04:31;;;;;;;26.73;5.38;;;;;;;;;;5052835;28;20025;-46
2023/09/30 02:06:58;;;;;;;25.00;4.93;;;;;;;;;;5053479;28;20029;-44
2023/09/30 02:09:25;;;;;;;26.98;5.82;;;;;;;;;;5053921;28;20036;-45
2023/09/30 02:11:52;;;;;;;26.75;6.50;;;;;;;;;;5053300;28;20103;-44
2023/09/30 02:14:20;;;;;;;22.17;5.28;;;;;;;;;;5052773;28;20037;-42
2023/09/30 02:16:47;;;;;;;26.35;5.70;;;;;;;;;;5035350;28;20082;-43
2023/09/30 02:19:14;;;;;;;24.83;5.45;;;;;;;;;;5052544;28;20499;-42
2023/09/30 02:21:42;;;;;;;21.35;5.55;;;;;;;;;;5052229;28;20040;-42
2023/09/30 02:24:10;;;;;;;21.42;5.25;;;;;;;;;;5052531;28;20476;-42
2023/09/30 02:26:39;;;;;;;26.20;5.80;;;;;;;;;;5052773;28;20487;-41
2023/09/30 02:29:07;;;;;;;21.00;5.13;;;;;;;;;;5052956;28;20168;-41
2023/09/30 02:31:34;;;;;;;21.15;5.05;;;;;;;;;;5052296;28;20043;-42
2023/09/30 02:34:02;;;;;;;23.15;5.20;;;;;;;;;;5052281;28;20082;-41
2023/09/30 02:36:29;;;;;;;20.13;4.43;;;;;;;;;;5052222;28;20387;-42
2023/09/30 02:38:57;;;;;;;19.42;4.68;;;;;;;;;;5034271;28;20158;-43
2023/09/30 02:41:24;;;;;;;18.08;4.40;;;;;;;;;;5051733;28;20047;-41
2023/09/30 02:43:51;;;;;;;19.13;4.85;;;;;;;;;;5052670;28;20044;-41
2023/09/30 02:46:18;;;;;;;17.10;4.70;;;;;;;;;;5052557;28;20092;-41
2023/09/30 02:48:45;;;;;;;13.23;4.85;;;;;;;;;;5052814;28;20086;-42
2023/09/30 02:51:12;;;;;;;17.60;4.15;;;;;;;;;;5052554;28;20029;-42
2023/09/30 02:53:39;;;;;;;17.23;3.80;;;;;;;;;;5052467;28;20041;-41
2023/09/30 02:56:06;;;;;;;16.92;4.60;;;;;;;;;;5052607;28;20032;-41
2023/09/30 02:58:34;;;;;;;18.65;4.00;;;;;;;;;;5052699;28;20035;-41
2023/09/30 03:01:01;;;;;;;18.95;4.40;;;;;;;;;;5052277;28;20035;-42
2023/09/30 03:03:28;;;;;;;18.30;4.20;;;;;;;;;;5052292;28;20388;-42
2023/09/30 03:05:55;;;;;;;15.75;4.25;;;;;;;;;;5052537;28;20021;-41
2023/09/30 03:08:22;;;;;;;16.83;4.13;;;;;;;;;;5052270;28;20033;-41
2023/09/30 03:10:49;;;;;;;13.13;3.67;;;;;;;;;;5052531;28;20485;-42
2023/09/30 03:13:18;;;;;;;15.15;3.97;;;;;;;;;;5052160;28;20083;-42
2023/09/30 03:15:45;;;;;;;15.93;4.15;;;;;;;;;;5052165;28;20037;-42
2023/09/30 03:18:13;;;;;;;17.85;4.05;;;;;;;;;;5051927;28;20025;-41
2023/09/30 03:20:40;;;;;;;15.65;4.38;;;;;;;;;;4938891;28;3264576;-42
2023/09/30 03:23:08;;;;;;;15.32;3.72;;;;;;;;;;5053300;28;20503;-42
2023/09/30 03:25:35;;;;;;;16.17;3.95;;;;;;;;;;5053022;28;20036;-41
2023/09/30 03:28:06;;;;;;;12.95;4.03;;;;;;;;;;5053027;28;20071;-42
2023/09/30 03:30:33;;;;;;;14.00;3.50;;;;;;;;;;5053104;28;20021;-42
2023/09/30 03:33:01;;;;;;;17.63;3.88;;;;;;;;;;5052902;28;20069;-42
2023/09/30 03:35:29;;;;;;;13.48;3.95;;;;;;;;;;5052786;28;20090;-41
2023/09/30 03:37:56;;;;;;;18.25;4.60;;;;;;;;;;5052818;28;20394;-42
2023/09/30 03:40:27;;;;;;;16.55;3.70;;;;;;;;;;5053142;28;20368;-41
2023/09/30 03:42:54;;;;;;;19.00;3.97;;;;;;;;;;5052750;28;20115;-42
2023/09/30 03:45:22;;;;;;;19.95;4.28;;;;;;;;;;5052735;28;20060;-42
2023/09/30 03:47:49;;;;;;;18.80;4.15;;;;;;;;;;5052916;28;20039;-42
2023/09/30 03:50:16;;;;;;;25.52;5.22;;;;;;;;;;5052592;28;20101;-42
2023/09/30 03:52:44;;;;;;;17.35;4.15;;;;;;;;;;5052325;28;20037;-42
2023/09/30 03:55:12;;;;;;;25.90;4.30;;;;;;;;;;5052318;28;20021;-41
2023/09/30 03:57:39;;;;;;;23.13;4.68;;;;;;;;;;5052517;28;20557;-41
2023/09/30 04:00:06;;;;;;;21.90;5.57;;;;;;;;;;5052529;28;20048;-42
2023/09/30 04:02:34;;;;;;;20.02;4.63;;;;;;;;;;5052519;28;20096;-42
2023/09/30 04:05:05;;;;;;;29.48;5.47;;;;;;;;;;5052506;28;20033;-42
2023/09/30 04:07:32;;;;;;;20.77;4.60;;;;;;;;;;5052196;28;20029;-42
2023/09/30 04:10:01;;;;;;;26.27;5.35;;;;;;;;;;5052185;28;20133;-42
2023/09/30 04:12:28;;;;;;;25.08;5.47;;;;;;;;;;5052183;28;20110;-41
2023/09/30 04:14:55;;;;;;;22.30;5.03;;;;;;;;;;5052296;28;20044;-42
2023/09/30 04:17:23;;;;;;;25.95;5.20;;;;;;;;;;5052008;28;20048;-42
2023/09/30 04:19:53;;;;;;;29.92;5.90;;;;;;;;;;5051743;28;20061;-42
2023/09/30 04:22:21;;;;;;;29.05;5.22;;;;;;;;;;5052170;28;20033;-43
2023/09/30 04:24:51;;;;;;;27.65;6.50;;;;;;;;;;5051977;28;20419;-43
2023/09/30 04:27:18;;;;;;;27.27;5.20;;;;;;;;;;5051900;28;20399;-43
2023/09/30 04:29:45;;;;;;;33.63;5.53;;;;;;;;;;5052021;28;20082;-43
2023/09/30 04:32:13;;;;;;;36.97;6.30;;;;;;;;;;5052052;28;20052;-43
2023/09/30 04:34:40;;;;;;;39.97;6.18;;;;;;;;;;5051857;28;20490;-43
2023/09/30 04:37:09;;;;;;;26.80;5.45;;;;;;;;;;5052056;28;20037;-43
2023/09/30 04:39:36;;;;;;;27.23;5.60;;;;;;;;;;5051848;28;20061;-43
2023/09/30 04:42:04;;;;;;;28.65;6.07;;;;;;;;;;5051776;28;20033;-44
2023/09/30 04:44:31;;;;;;;31.08;5.70;;;;;;;;;;5051639;28;20564;-43
2023/09/30 04:47:00;;;;;;;34.47;6.82;;;;;;;;;;5051844;28;20025;-44
2023/09/30 04:49:27;;;;;;;40.30;6.53;;;;;;;;;;5051607;28;20550;-45
2023/09/30 04:51:54;;;;;;;31.90;6.75;;;;;;;;;;5051785;28;20032;-43
2023/09/30 04:54:21;;;;;;;28.80;6.45;;;;;;;;;;5051552;28;20526;-43
2023/09/30 04:56:50;;;;;;;36.72;6.55;;;;;;;;;;5051504;28;20052;-43
2023/09/30 04:59:17;;;;;;;26.85;5.47;;;;;;;;;;5051545;28;20025;-42
2023/09/30 05:01:45;;;;;;;29.23;5.90;;;;;;;;;;5051305;28;20470;-43
2023/09/30 05:04:11;;;;;;;27.98;6.38;;;;;;;;;;5051485;28;20083;-43
2023/09/30 05:06:39;;;;;;;34.60;7.03;;;;;;;;;;5051521;28;20032;-43
2023/09/30 05:09:07;;;;;;;33.42;6.05;;;;;;;;;;5051403;28;20403;-43
2023/09/30 05:11:35;;;;;;;24.67;5.75;;;;;;;;;;5051275;28;20048;-44
2023/09/30 05:14:05;;;;;;;32.65;6.55;;;;;;;;;;5051296;28;20033;-43
2023/09/30 05:16:32;;;;;;;43.50;7.18;;;;;;;;;;5051470;28;20029;-43
2023/09/30 05:18:59;;;;;;;32.17;6.68;;;;;;;;;;5051242;28;20053;-43
2023/09/30 05:21:26;;;;;;;31.67;6.03;;;;;;;;;;5051396;28;20380;-43
2023/09/30 05:23:53;;;;;;;32.95;6.75;;;;;;;;;;5051183;28;20041;-43
2023/09/30 05:26:20;;;;;;;34.05;6.40;;;;;;;;;;5051398;28;20037;-43
2023/09/30 05:28:47;;;;;;;39.03;6.60;;;;;;;;;;5051324;28;20510;-43
2023/09/30 05:31:14;;;;;;;30.65;5.95;;;;;;;;;;5051140;28;20029;-43
2023/09/30 05:33:41;;;;;;;36.20;7.03;;;;;;;;;;5051297;28;20082;-43
2023/09/30 05:36:08;;;;;;;32.80;6.35;;;;;;;;;;5051261;28;20060;-43
2023/09/30 05:38:35;;;;;;;30.20;5.63;;;;;;;;;;5051079;28;20032;-43
2023/09/30 05:41:03;;;;;;;34.83;6.95;;;;;;;;;;5050948;28;20021;-43
2023/09/30 05:43:30;;;;;;;36.65;6.05;;;;;;;;;;5051373;28;20039;-45
2023/09/30 05:45:58;;;;;;;29.42;6.20;;;;;;;;;;5051210;28;20026;-43
2023/09/30 05:48:25;;;;;;;33.63;6.63;;;;;;;;;;5050939;28;20399;-43
2023/09/30 05:50:52;;;;;;;28.67;5.97;;;;;;;;;;5051106;28;20036;-44
2023/09/30 05:53:20;;;;;;;39.33;6.03;;;;;;;;;;5066552;28;20040;-42
2023/09/30 05:55:48;;;;;;;36.30;6.35;;;;;;;;;;5071058;28;20043;-42
2023/09/30 05:58:16;;;;;;;30.80;5.97;;;;;;;;;;5070886;28;20124;-42
2023/09/30 06:00:43;;;;;;;33.05;6.68;;;;;;;;;;5068957;28;20064;-43
2023/09/30 06:03:13;;;;;;;27.13;5.15;;;;;;;;;;5050678;28;20056;-41
2023/09/30 06:05:41;;;;;;;28.73;5.60;;;;;;;;;;5050892;28;20442;-42
2023/09/30 06:08:13;;;;;;;25.90;5.65;;;;;;;;;;5051044;28;20040;-42
2023/09/30 06:10:43;;;;;;;30.05;5.55;;;;;;;;;;5050764;28;20098;-42
2023/09/30 06:13:11;;;;;;;28.33;5.30;;;;;;;;;;5050857;28;20116;-42
2023/09/30 06:15:40;;;;;;;24.65;6.10;;;;;;;;;;5045063;28;20120;-41
2023/09/30 06:18:07;;;;;;;30.50;5.78;;;;;;;;;;5053997;28;20455;-41
2023/09/30 06:20:34;;;;;;;37.10;6.80;;;;;;;;;;5054119;28;20506;-41
2023/09/30 06:23:01;;;;;;;25.17;6.40;;;;;;;;;;5054538;28;20058;-42
2023/09/30 06:25:30;;;;;;;24.08;6.05;;;;;;;;;;5054389;28;20037;-42
2023/09/30 06:27:57;;;;;;;25.45;5.88;;;;;;;;;;5054346;28;20387;-41
2023/09/30 06:30:32;;;;;;;24.35;5.65;;;;;;;;;;5054288;28;20029;-42
2023/09/30 06:33:00;;;;;;;24.20;6.03;;;;;;;;;;5054135;28;20048;-41
2023/09/30 06:35:27;;;;;;;25.80;6.25;;;;;;;;;;5054158;28;20025;-42
2023/09/30 06:37:54;;;;;;;22.15;4.63;;;;;;;;;;5054101;28;20053;-43
2023/09/30 06:40:22;;;;;;;23.73;5.32;;;;;;;;;;5054136;28;20033;-43
2023/09/30 06:42:49;;;;;;;29.60;5.55;;;;;;;;;;5054181;28;20029;-42
2023/09/30 06:45:17;;;;;;;27.17;6.07;;;;;;;;;;5053933;28;20542;-41
2023/09/30 06:47:45;;;;;;;25.23;5.95;;;;;;;;;;5053799;28;20086;-41
2023/09/30 06:50:16;;;;;;;22.27;5.32;;;;;;;;;;5053667;28;20036;-41
2023/09/30 06:52:45;;;;;;;24.27;5.32;;;;;;;;;;5053768;28;20043;-41
2023/09/30 06:55:16;;;;;;;30.83;5.30;;;;;;;;;;5054041;28;20044;-41
2023/09/30 06:57:43;;;;;;;19.77;5.15;;;;;;;;;;5053611;28;20040;-41
2023/09/30 07:00:11;;;;;;;21.98;4.85;;;;;;;;;;5053643;28;20032;-41
2023/09/30 07:02:40;;;;;;;24.33;5.43;;;;;;;;;;5053735;28;20546;-42
2023/09/30 07:05:13;;;;;;;17.77;4.47;;;;;;;;;;5053481;28;20025;-41
2023/09/30 07:07:45;;;;;;;23.00;4.53;;;;;;;;;;5053629;28;20044;-42
2023/09/30 07:10:12;;;;;;;21.00;4.55;;;;;;;;;;5035324;28;20028;-41
2023/09/30 07:12:39;;;;;;;20.17;4.68;;;;;;;;;;5053535;28;20669;-42
2023/09/30 07:15:06;;;;;;;25.48;4.93;;;;;;;;;;5053512;28;20506;-42
2023/09/30 07:17:34;;;;;;;22.80;4.40;;;;;;;;;;5053507;28;20029;-43
2023/09/30 07:20:02;;;;;;;20.45;4.85;;;;;;;;;;5053163;28;20056;-43
2023/09/30 07:22:29;;;;;;;17.33;4.28;;;;;;;;;;5053261;28;20029;-42
2023/09/30 07:24:56;;;;;;;15.85;3.55;;;;;;;;;;5053398;28;20057;-43
2023/09/30 07:27:23;;;;;;;11.25;3.80;;;;;;;;;;5052813;28;20032;-42
2023/09/30 07:29:50;;;;;;;16.63;3.88;;;;;;;;;;5052371;28;20505;-43
2023/09/30 07:32:17;;;;;;;13.00;4.25;;;;;;;;;;5053261;28;20029;-43
2023/09/30 07:34:44;;;;;;;16.27;3.78;;;;;;;;;;5053137;28;20040;-42
2023/09/30 07:37:11;;;;;;;17.33;3.95;;;;;;;;;;5052890;28;20597;-44
2023/09/30 07:39:38;;;;;;;13.13;3.95;;;;;;;;;;5052835;28;20047;-43
2023/09/30 07:42:05;;;;;;;10.88;3.17;;;;;;;;;;5053123;28;20040;-43
2023/09/30 07:44:32;;;;;;;14.02;3.53;;;;;;;;;;5052841;28;20108;-42
2023/09/30 07:46:59;;;;;;;16.92;3.97;;;;;;;;;;5052985;28;20036;-43
2023/09/30 07:49:27;;;;;;;12.73;3.30;;;;;;;;;;5052753;28;20471;-43
2023/09/30 07:51:54;;;;;;;11.10;3.75;;;;;;;;;;5052708;28;20403;-42
2023/09/30 07:54:21;;;;;;;15.32;3.80;;;;;;;;;;5052711;28;20037;-43
2023/09/30 07:56:49;;;;;;;11.63;3.13;;;;;;;;;;5052799;28;20487;-43
2023/09/30 07:59:15;;;;;;;13.18;3.50;;;;;;;;;;5052629;28;20033;-43
2023/09/30 08:01:43;;;;;;;13.18;3.28;;;;;;;;;;5052624;28;20021;-43
2023/09/30 08:04:10;;;;;;;8.27;3.00;;;;;;;;;;5052526;28;20043;-42
2023/09/30 08:06:37;;;;;;;11.50;3.20;;;;;;;;;;5052509;28;20025;-44
2023/09/30 08:09:09;;;;;;;11.18;2.80;;;;;;;;;;5052506;28;20424;-43
2023/09/30 08:11:37;;;;;;;7.15;2.85;;;;;;;;;;5052239;28;20139;-43
2023/09/30 08:14:08;;;;;;;10.98;2.97;;;;;;;;;;5052321;28;20035;-42
2023/09/30 08:16:36;;;;;;;11.13;2.92;;;;;;;;;;5052142;28;20040;-43
2023/09/30 08:19:04;;;;;;;8.52;3.15;;;;;;;;;;5052222;28;20067;-42
2023/09/30 08:21:31;;;;;;;10.95;2.95;;;;;;;;;;5052241;28;20029;-42
2023/09/30 08:23:58;;;;;;;8.57;2.50;;;;;;;;;;5052335;28;20099;-43
2023/09/30 08:26:25;;;;;;;9.85;3.15;;;;;;;;;;5052168;28;20025;-43
2023/09/30 08:28:52;;;;;;;7.13;2.63;;;;;;;;;;5051985;28;20063;-43
2023/09/30 08:31:21;;;;;;;11.27;2.55;;;;;;;;;;5052036;28;20095;-43
2023/09/30 08:33:48;;;;;;;9.60;2.72;;;;;;;;;;5051987;28;20555;-42
2023/09/30 08:36:15;;;;;;;9.00;2.90;;;;;;;;;;5052039;28;20487;-43
2023/09/30 08:38:43;;;;;;;9.48;2.90;;;;;;;;;;5052092;28;20033;-43
2023/09/30 08:41:11;;;;;;;13.60;2.90;;;;;;;;;;5051425;28;20033;-43
2023/09/30 08:43:39;;;;;;;10.48;2.70;;;;;;;;;;5051929;28;20039;-43
2023/09/30 08:46:07;;;;;;;10.35;2.72;;;;;;;;;;5051844;28;20095;-42
2023/09/30 08:48:34;;;;;;;7.30;2.67;;;;;;;;;;5051686;28;20028;-43
2023/09/30 08:51:02;;;;;;;8.02;2.30;;;;;;;;;;5051766;28;20793;-43
2023/09/30 08:53:30;;;;;;;10.48;2.90;;;;;;;;;;5051743;28;20064;-43
2023/09/30 08:56:00;;;;;;;7.82;2.50;;;;;;;;;;5051789;28;20033;-42
2023/09/30 08:58:30;;;;;;;6.95;2.40;;;;;;;;;;5033717;28;20041;-43
2023/09/30 09:00:57;;;;;;;8.98;2.53;;;;;;;;;;5051129;28;20167;-41
2023/09/30 09:03:24;;;;;;;8.07;2.75;;;;;;;;;;5051498;28;20029;-41
2023/09/30 09:05:59;;;;;;;8.20;2.60;;;;;;;;;;5051640;28;20107;-41
2023/09/30 09:08:27;;;;;;;6.50;2.60;;;;;;;;;;5051587;28;20179;-41
2023/09/30 09:11:03;;;;;;;10.80;1.98;;;;;;;;;;5051499;28;20145;-41
2023/09/30 09:13:45;;;;;;;7.00;2.38;;;;;;;;;;5051264;28;20499;-41
2023/09/30 09:16:12;;;;;;;7.50;2.25;;;;;;;;;;5051433;28;20451;-41
2023/09/30 09:18:40;;;;;;;5.32;1.90;;;;;;;;;;5051101;28;20048;-41
2023/09/30 09:21:14;;;;;;;5.03;2.15;;;;;;;;;;5051120;28;20029;-41
2023/09/30 09:23:42;;;;;;;7.20;2.22;;;;;;;;;;5051348;28;20036;-40
2023/09/30 09:26:13;;;;;;;8.48;2.42;;;;;;;;;;5051486;28;20028;-41
2023/09/30 09:28:42;;;;;;;7.07;2.35;;;;;;;;;;5051335;28;20040;-41
2023/09/30 09:31:25;;;;;;;6.60;2.10;;;;;;;;;;5051392;28;20033;-41
2023/09/30 09:33:51;;;;;;;;;;;;;;;;;;5051632;28;20029;-41
2023/09/30 09:36:19;;;;;;;4.95;1.95;;;;;;;;;;5051305;28;20394;-41
2023/09/30 09:38:53;;;;;;;8.10;2.13;;;;;;;;;;5051254;28;20029;-41
2023/09/30 09:41:20;;;;;;;5.10;1.77;;;;;;;;;;5050956;28;20404;-41
2023/09/30 09:43:51;;;;;;;5.03;1.88;;;;;;;;;;5051303;28;20025;-41
2023/09/30 09:46:18;;;;;;;5.72;2.03;;;;;;;;;;5051222;28;20053;-41
2023/09/30 09:48:49;;;;;;;6.82;2.08;;;;;;;;;;5051134;28;20021;-41
2023/09/30 09:51:16;;;;;;;6.03;1.83;;;;;;;;;;5051440;28;20059;-41
2023/09/30 09:53:44;;;;;;;6.47;1.98;;;;;;;;;;5055047;28;20825;-41
2023/09/30 09:56:12;;;;;;;8.43;1.70;;;;;;;;;;5055030;28;20053;-41
2023/09/30 09:58:43;;;;;;;6.53;1.83;;;;;;;;;;5054977;28;20029;-41
2023/09/30 10:01:11;;;;;;;3.95;1.63;;;;;;;;;;5054744;28;20033;-41
2023/09/30 10:03:42;;;;;;;5.90;1.70;;;;;;;;;;5054876;28;20390;-41
2023/09/30 10:06:09;;;;;;;4.65;1.65;;;;;;;;;;5054772;28;20451;-41
2023/09/30 10:08:41;;;;;;;5.43;1.67;;;;;;;;;;5054778;28;20091;-40
2023/09/30 10:11:09;;;;;;;4.90;1.67;;;;;;;;;;5054720;28;20025;-41
2023/09/30 10:13:52;;;;;;;6.22;2.00;;;;;;;;;;5036679;28;20514;-41
2023/09/30 10:16:38;;;;;;;4.45;1.85;;;;;;;;;;5054671;28;20017;-41
2023/09/30 10:19:11;;;;;;;5.88;1.70;;;;;;;;;;5054350;28;20055;-40
2023/09/30 10:21:39;;;;;;;2.95;1.20;;;;;;;;;;5054442;28;20028;-41
2023/09/30 10:24:24;;;;;;;5.93;2.05;;;;;;;;;;5048546;28;20049;-41
2023/09/30 10:27:09;;;;;;;7.15;1.58;;;;;;;;;;5054515;28;20399;-41
2023/09/30 10:29:42;;;;;;;5.43;1.55;;;;;;;;;;5054254;28;20557;-40
2023/09/30 10:32:09;;;;;;;5.95;1.83;;;;;;;;;;5054381;28;20399;-41
2023/09/30 10:34:36;;;;;;;4.47;1.50;;;;;;;;;;5054167;28;20410;-41
2023/09/30 10:37:23;;;;;;;3.72;1.48;;;;;;;;;;5054301;28;20032;-41
2023/09/30 10:39:59;;;;;;;3.45;1.30;;;;;;;;;;5053603;28;20124;-43
2023/09/30 10:42:49;;;;;;;10.60;2.28;;;;;;;;;;5054078;28;20039;-44
2023/09/30 10:45:34;;;;;;;4.18;1.30;;;;;;;;;;5054317;28;20352;-43
2023/09/30 10:48:21;;;;;;;5.22;1.63;;;;;;;;;;5054060;28;20147;-43
2023/09/30 10:50:52;;;;;;;4.97;1.60;;;;;;;;;;5053771;28;20029;-44
2023/09/30 10:53:22;;;;;;;9.88;2.03;;;;;;;;;;5053812;28;20040;-42
2023/09/30 10:55:59;;;;;;;5.43;1.75;;;;;;;;;;5053942;28;20032;-42
2023/09/30 10:58:44;;;;;;;4.72;1.35;;;;;;;;;;5054009;28;20033;-42
2023/09/30 11:01:13;;;;;;;7.72;1.48;;;;;;;;;;5035832;28;20051;-42
2023/09/30 11:03:40;;;;;;;4.88;1.42;;;;;;;;;;5053442;28;20539;-43
2023/09/30 11:06:07;;;;;;;5.57;2.22;;;;;;;;;;5053630;28;20033;-42
2023/09/30 11:08:36;;;;;;;4.90;1.40;;;;;;;;;;5053513;28;20510;-43
2023/09/30 11:11:04;;;;;;;8.70;1.77;;;;;;;;;;5053085;28;20459;-40
2023/09/30 11:13:34;;;;;;;3.25;1.45;;;;;;;;;;5053309;28;20067;-41
2023/09/30 11:16:02;;;;;;;3.47;1.40;;;;;;;;;;5053236;28;20031;-41
2023/09/30 11:18:30;;;;;;;3.15;1.33;;;;;;;;;;5053091;28;20037;-41
2023/09/30 11:21:06;;;;;;;4.57;1.65;;;;;;;;;;5053057;28;20068;-41
2023/09/30 11:23:33;;;;;;;3.78;1.52;;;;;;;;;;5052639;28;20029;-41
2023/09/30 11:26:00;;;;;;;6.47;1.35;;;;;;;;;;5052684;28;20060;-42
2023/09/30 11:28:36;;;;;;;2.42;1.20;;;;;;;;;;5054271;28;20115;-43
2023/09/30 11:31:03;;;;;;;4.75;1.35;;;;;;;;;;5054535;28;20032;-41
2023/09/30 11:33:30;;;;;;;7.47;1.63;;;;;;;;;;5062821;28;20401;-41
2023/09/30 11:35:58;;;;;;;4.13;1.60;;;;;;;;;;5063776;28;20029;-41
2023/09/30 11:38:26;;;;;;;4.75;1.20;;;;;;;;;;5058821;28;20115;-41
2023/09/30 11:41:06;;;;;;;6.05;1.50;;;;;;;;;;5062204;28;20039;-43
2023/09/30 11:43:36;;;;;;;3.15;1.08;;;;;;;;;;5056974;28;20098;-41
2023/09/30 11:46:10;;;;;;;3.95;1.52;;;;;;;;;;5061241;28;20032;-43
2023/09/30 11:48:39;;;;;;;2.50;1.02;;;;;;;;;;5056375;28;20032;-43
2023/09/30 11:51:06;;;;;;;4.43;1.20;;;;;;;;;;5051836;28;20475;-41
2023/09/30 11:53:36;;;;;;;5.28;1.63;;;;;;;;;;5042277;28;20041;-43
2023/09/30 11:56:03;;;;;;;4.25;1.20;;;;;;;;;;5042864;28;20814;-41
2023/09/30 11:58:32;;;;;;;4.57;1.52;;;;;;;;;;5057716;28;20502;-41
2023/09/30 12:01:02;;;;;;;6.68;1.38;;;;;;;;;;5062378;28;20483;-41
2023/09/30 12:03:29;;;;;;;7.75;1.30;;;;;;;;;;5050778;28;20407;-41
2023/09/30 12:05:57;;;;;;;8.15;1.75;;;;;;;;;;5051733;28;20037;-41
2023/09/30 12:08:23;;;;;;;10.10;1.70;;;;;;;;;;5051900;28;20057;-41
2023/09/30 12:10:51;;;;;;;18.77;2.42;;;;;;;;;;5051806;28;20032;-41
2023/09/30 12:13:18;;;;;;;13.85;1.75;;;;;;;;;;5049231;28;20128;-43
2023/09/30 12:15:45;;;;;;;20.90;2.15;;;;;;;;;;5051109;28;20514;-42
2023/09/30 12:18:16;;;;;;;14.30;2.50;;;;;;;;;;5051610;28;20059;-42
2023/09/30 12:20:44;;;;;;;9.63;1.88;;;;;;;;;;5051246;28;20071;-41
2023/09/30 12:23:11;;;;;;;9.38;1.67;;;;;;;;;;5051769;28;20090;-42
2023/09/30 12:25:38;;;;;;;14.57;2.33;;;;;;;;;;5049099;28;20115;-43
2023/09/30 12:28:05;;;;;;;15.27;2.33;;;;;;;;;;5051547;28;20029;-43
2023/09/30 12:30:32;;;;;;;14.90;2.20;;;;;;;;;;5051447;28;20785;-43
2023/09/30 12:32:59;;;;;;;15.93;2.55;;;;;;;;;;5050831;28;20036;-41
2023/09/30 12:35:26;;;;;;;20.58;2.30;;;;;;;;;;5051298;28;20041;-43
2023/09/30 12:37:53;;;;;;;18.67;2.60;;;;;;;;;;5051456;28;20040;-43
2023/09/30 12:40:20;;;;;;;22.13;2.45;;;;;;;;;;5051105;28;20200;-42
2023/09/30 12:42:47;;;;;;;10.73;2.20;;;;;;;;;;5051370;28;20383;-43
2023/09/30 12:45:14;;;;;;;15.75;2.20;;;;;;;;;;5051279;28;20021;-43
2023/09/30 12:47:41;;;;;;;13.10;2.10;;;;;;;;;;5051231;28;20032;-42
2023/09/30 12:50:11;;;;;;;14.52;1.73;;;;;;;;;;5050564;28;20510;-40
2023/09/30 12:52:38;;;;;;;12.98;1.73;;;;;;;;;;5037394;28;20043;-41
2023/09/30 12:55:05;;;;;;;6.60;2.15;;;;;;;;;;5038198;28;20044;-42
2023/09/30 12:57:33;;;;;;;9.45;2.38;;;;;;;;;;5051051;28;20041;-41
2023/09/30 13:00:00;;;;;;;6.97;1.63;;;;;;;;;;5051286;28;20574;-39
2023/09/30 13:02:27;;;;;;;10.93;1.95;;;;;;;;;;5051152;28;20040;-42
2023/09/30 13:04:54;;;;;;;13.27;1.73;;;;;;;;;;5050616;28;20450;-39
2023/09/30 13:07:21;;;;;;;9.20;2.25;;;;;;;;;;5050407;28;20025;-39
2023/09/30 13:09:48;;;;;;;18.20;2.38;;;;;;;;;;5050845;28;20036;-39
2023/09/30 13:12:16;;;;;;;8.57;1.63;;;;;;;;;;5050732;28;20068;-41
2023/09/30 13:14:43;;;;;;;16.23;2.47;;;;;;;;;;5038041;28;20045;-41
2023/09/30 13:17:14;;;;;;;17.42;2.55;;;;;;;;;;5041224;28;20033;-40
2023/09/30 13:19:41;;;;;;;21.17;2.65;;;;;;;;;;5038221;28;20045;-41
2023/09/30 13:22:08;;;;;;;24.88;3.13;;;;;;;;;;5040409;28;20037;-41
2023/09/30 13:24:39;;;;;;;25.95;2.70;;;;;;;;;;5018266;28;20033;-43
2023/09/30 13:27:06;;;;;;;33.15;2.67;;;;;;;;;;5042508;28;20029;-43
2023/09/30 13:29:33;;;;;;;30.48;3.15;;;;;;;;;;5040650;28;20087;-42
2023/09/30 13:32:00;;;;;;;19.95;3.03;;;;;;;;;;5042550;28;20105;-42
2023/09/30 13:34:27;;;;;;;20.08;2.75;;;;;;;;;;5045526;28;20040;-43
2023/09/30 13:36:57;;;;;;;23.85;3.38;;;;;;;;;;5054987;28;20407;-39
2023/09/30 13:39:25;;;;;;;19.48;2.70;;;;;;;;;;5042730;28;20048;-42
2023/09/30 13:41:52;;;;;;;18.83;2.50;;;;;;;;;;5048467;28;20037;-40
2023/09/30 13:44:19;;;;;;;23.05;2.78;;;;;;;;;;5054641;28;20025;-41
2023/09/30 13:46:46;;;;;;;17.48;2.58;;;;;;;;;;5054891;28;20032;-43
2023/09/30 13:49:13;;;;;;;15.35;2.42;;;;;;;;;;5047049;28;20483;-41
2023/09/30 13:51:41;;;;;;;23.83;2.58;;;;;;;;;;5054676;28;20390;-40
2023/09/30 13:54:08;;;;;;;12.00;2.40;;;;;;;;;;5048510;28;20033;-41
2023/09/30 13:56:35;;;;;;;24.80;3.08;;;;;;;;;;5053162;28;20037;-41
2023/09/30 13:59:02;;;;;;;22.42;3.03;;;;;;;;;;5054089;28;20032;-41
2023/09/30 14:01:29;;;;;;;16.58;2.65;;;;;;;;;;5036880;28;20381;-42
2023/09/30 14:03:57;;;;;;;20.27;2.30;;;;;;;;;;5054887;28;20025;-43
2023/09/30 14:06:25;;;;;;;14.43;2.35;;;;;;;;;;5054668;28;20083;-44
2023/09/30 14:08:52;;;;;;;10.27;2.15;;;;;;;;;;5054318;28;20033;-43
2023/09/30 14:11:19;;;;;;;14.23;2.63;;;;;;;;;;5054253;28;20307;-41
2023/09/30 14:13:46;;;;;;;15.00;2.20;;;;;;;;;;5064796;28;20048;-43
2023/09/30 14:16:13;;;;;;;23.92;2.78;;;;;;;;;;5064632;28;20091;-43
2023/09/30 14:18:40;;;;;;;17.30;2.60;;;;;;;;;;5062532;28;20124;-42
2023/09/30 14:21:07;;;;;;;25.00;2.78;;;;;;;;;;5071419;28;20098;-43
2023/09/30 14:23:34;;;;;;;15.30;3.05;;;;;;;;;;5074470;28;20077;-43
2023/09/30 14:26:10;;;;;;;12.05;2.15;;;;;;;;;;5074209;28;20044;-41
2023/09/30 14:28:37;;;;;;;20.05;2.30;;;;;;;;;;5074454;28;20028;-41
2023/09/30 14:31:05;;;;;;;15.90;2.90;;;;;;;;;;5058804;28;20033;-43
2023/09/30 14:33:32;;;;;;;13.10;2.50;;;;;;;;;;5056685;28;20048;-43
2023/09/30 14:35:59;;;;;;;13.82;2.80;;;;;;;;;;5054297;28;20025;-43
2023/09/30 14:38:26;;;;;;;17.77;2.55;;;;;;;;;;5035491;28;20056;-42
2023/09/30 14:40:53;;;;;;;17.00;2.53;;;;;;;;;;5053375;28;20021;-43